Time;durP1;ratioP1;P1;durP2;ratioP2;P2;SDS_P1;SDS_P2;PMS_P1;PMS_P2;Temp;Humidity;BMP_temperature;BMP_pressure;BME280_temperature;BME280_humidity;BME280_pressure;Samples;Min_cycle;Max_cycle;Signal;HPM_P1;HPM_P2
2022/06/19 00:02:16;;;;;;;7.32;5.35;;;25.20;75.00;;;;;;5092385;28;20115;-66
2022/06/19 00:04:48;;;;;;;10.60;5.70;;;25.10;75.50;;;;;;5092450;28;20059;-66
2022/06/19 00:07:17;;;;;;;8.85;5.20;;;25.00;75.60;;;;;;5092654;28;20120;-65
2022/06/19 00:09:44;;;;;;;12.20;5.65;;;24.90;75.50;;;;;;5092585;28;20056;-66
2022/06/19 00:12:11;;;;;;;10.60;5.60;;;24.90;75.80;;;;;;5092573;28;20092;-66
2022/06/19 00:14:38;;;;;;;12.82;6.30;;;24.70;77.00;;;;;;5100504;28;20419;-67
2022/06/19 00:17:07;;;;;;;10.90;5.43;;;24.60;77.20;;;;;;5102110;28;20093;-66
2022/06/19 00:19:34;;;;;;;11.93;4.75;;;24.60;76.60;;;;;;5077835;28;20067;-66
2022/06/19 00:22:01;;;;;;;11.30;5.85;;;24.70;76.10;;;;;;5096168;28;20040;-66
2022/06/19 00:24:29;;;;;;;8.55;5.88;;;24.80;76.10;;;;;;5095828;28;20081;-66
2022/06/19 00:26:58;;;;;;;7.82;4.93;;;24.70;76.00;;;;;;5095997;28;20059;-66
2022/06/19 00:29:26;;;;;;;10.10;5.85;;;24.90;76.00;;;;;;5095805;28;20078;-66
2022/06/19 00:31:54;;;;;;;14.50;5.78;;;24.80;75.80;;;;;;5095823;28;20032;-65
2022/06/19 00:34:21;;;;;;;9.35;5.55;;;24.80;75.60;;;;;;5095698;28;20138;-66
2022/06/19 00:36:51;;;;;;;12.35;5.47;;;24.80;75.40;;;;;;5095843;28;20407;-65
2022/06/19 00:39:19;;;;;;;9.35;5.88;;;24.70;75.90;;;;;;5095611;28;20048;-66
2022/06/19 00:41:47;;;;;;;12.43;5.88;;;24.70;76.20;;;;;;5077933;28;20035;-67
2022/06/19 00:44:15;;;;;;;12.48;5.38;;;24.60;76.50;;;;;;5095423;28;20047;-66
2022/06/19 00:47:07;;;;;;;9.27;5.03;;;24.50;76.60;;;;;;5095221;28;20511;-66
2022/06/19 00:49:38;;;;;;;13.20;5.32;;;24.50;76.20;;;;;;5098213;28;20043;-66
2022/06/19 00:52:16;;;;;;;8.57;5.20;;;24.60;76.10;;;;;;5087746;28;20052;-65
2022/06/19 00:54:55;;;;;;;13.77;5.10;;;24.60;75.50;;;;;;5095144;28;20048;-66
2022/06/19 00:57:23;;;;;;;15.95;4.93;;;24.70;75.20;;;;;;5081652;28;20422;-66
2022/06/19 01:00:00;;;;;;;11.57;4.75;;;24.60;75.60;;;;;;5093929;28;20063;-66
2022/06/19 01:02:27;;;;;;;9.57;5.22;;;24.70;75.70;;;;;;5095295;28;20036;-66
2022/06/19 01:04:56;;;;;;;14.10;5.15;;;24.70;75.40;;;;;;5095961;28;20062;-66
2022/06/19 01:07:26;;;;;;;15.73;5.55;;;24.50;75.00;;;;;;5096495;28;20066;-66
2022/06/19 01:09:53;;;;;;;11.65;5.45;;;24.60;75.10;;;;;;5074176;28;20040;-65
2022/06/19 01:12:22;;;;;;;10.95;5.25;;;24.60;74.60;;;;;;5092729;28;20053;-65
2022/06/19 01:14:54;;;;;;;10.15;5.30;;;24.70;75.50;;;;;;5094947;28;20040;-66
2022/06/19 01:17:21;;;;;;;9.02;4.90;;;24.70;73.90;;;;;;5094043;28;20126;-65
2022/06/19 01:19:48;;;;;;;6.35;4.85;;;24.70;73.50;;;;;;5094896;28;20471;-65
2022/06/19 01:22:31;;;;;;;11.68;5.57;;;24.80;74.20;;;;;;5108302;28;20130;-66
2022/06/19 01:25:17;;;;;;;10.00;4.63;;;24.70;73.90;;;;;;5113821;28;20055;-65
2022/06/19 01:30:36;;;;;;;14.77;5.35;;;24.60;74.50;;;;;;5115144;28;20097;-66
2022/06/19 01:33:06;;;;;;;8.32;4.85;;;24.60;74.90;;;;;;5114375;28;20517;-66
2022/06/19 01:35:36;;;;;;;11.30;4.68;;;24.70;73.50;;;;;;5113659;28;20560;-65
2022/06/19 01:38:10;;;;;;;9.82;4.60;;;24.50;74.50;;;;;;5099852;28;20044;-65
2022/06/19 01:40:39;;;;;;;9.15;5.13;;;24.20;74.90;;;;;;5093528;28;20112;-65
2022/06/19 01:43:07;;;;;;;9.02;4.53;;;24.30;75.60;;;;;;5094296;28;20054;-66
2022/06/19 01:45:34;;;;;;;9.00;5.05;;;24.40;74.10;;;;;;5076345;28;20063;-65
2022/06/19 01:48:02;;;;;;;9.48;4.93;;;24.40;73.90;;;;;;5092986;28;20044;-65
2022/06/19 01:50:31;;;;;;;7.80;4.35;;;24.10;75.70;;;;;;5093919;28;20135;-66
2022/06/19 01:53:11;;;;;;;11.75;4.72;;;24.00;75.50;;;;;;5093573;28;20082;-66
2022/06/19 01:55:38;;;;;;;13.65;5.38;;;23.80;75.70;;;;;;5093157;28;20052;-65
2022/06/19 01:58:06;;;;;;;11.57;5.28;;;24.10;75.70;;;;;;5094163;28;20032;-65
2022/06/19 02:00:36;;;;;;;15.32;5.28;;;24.20;75.80;;;;;;5093918;28;20043;-65
2022/06/19 02:03:11;;;;;;;8.48;5.05;;;24.20;75.90;;;;;;5075764;28;20044;-65
2022/06/19 02:05:40;;;;;;;10.73;5.47;;;24.10;75.30;;;;;;5093683;28;20083;-66
2022/06/19 02:08:08;;;;;;;12.43;5.28;;;24.10;76.00;;;;;;5075352;28;20478;-66
2022/06/19 02:10:40;;;;;;;10.15;5.97;;;24.00;76.60;;;;;;5093163;28;20503;-66
2022/06/19 02:13:09;;;;;;;10.82;5.07;;;24.00;77.20;;;;;;5093662;28;20134;-65
2022/06/19 02:15:37;;;;;;;10.48;5.45;;;23.90;77.30;;;;;;5092172;28;20123;-66
2022/06/19 02:18:09;;;;;;;9.65;5.38;;;24.00;77.80;;;;;;5074367;28;20044;-65
2022/06/19 02:20:39;;;;;;;16.25;6.30;;;23.90;76.70;;;;;;5092514;28;20040;-66
2022/06/19 02:23:07;;;;;;;18.63;6.82;;;23.90;76.80;;;;;;5093745;28;20044;-65
2022/06/19 02:25:38;;;;;;;10.18;5.05;;;23.90;76.60;;;;;;5093773;28;20048;-65
2022/06/19 02:28:05;;;;;;;;;;;23.90;76.40;;;;;;5093075;28;20066;-66
2022/06/19 02:30:32;;;;;;;11.88;5.90;;;24.00;76.90;;;;;;5074364;28;20007;-65
2022/06/19 02:33:00;;;;;;;10.25;5.43;;;24.00;76.10;;;;;;5093321;28;20153;-66
2022/06/19 02:35:26;;;;;;;8.70;5.00;;;24.00;76.10;;;;;;5093198;28;20441;-65
2022/06/19 02:37:56;;;;;;;7.50;5.35;;;23.90;76.10;;;;;;5092365;28;20598;-65
2022/06/19 02:40:45;;;;;;;15.63;5.90;;;23.90;76.90;;;;;;5093098;28;20150;-65
2022/06/19 02:43:18;;;;;;;11.87;6.03;;;23.60;77.90;;;;;;5092894;28;20058;-66
2022/06/19 02:45:46;;;;;;;12.23;5.63;;;23.40;78.20;;;;;;5093205;28;20051;-66
2022/06/19 02:48:29;;;;;;;7.68;4.82;;;23.30;78.60;;;;;;5091982;28;20040;-66
2022/06/19 02:50:59;;;;;;;8.02;4.88;;;23.30;79.20;;;;;;5092780;28;20039;-65
2022/06/19 02:53:27;;;;;;;8.50;4.55;;;23.20;80.00;;;;;;5092019;28;20046;-65
2022/06/19 02:55:55;;;;;;;10.20;5.00;;;22.90;80.90;;;;;;5093313;28;20075;-66
2022/06/19 02:58:24;;;;;;;10.27;5.68;;;23.00;80.30;;;;;;5093361;28;20089;-67
2022/06/19 03:00:52;;;;;;;7.47;5.22;;;23.20;80.00;;;;;;5093246;28;20089;-66
2022/06/19 03:03:39;;;;;;;12.25;5.82;;;23.30;79.80;;;;;;5093195;28;20050;-65
2022/06/19 03:06:06;;;;;;;10.38;6.35;;;23.20;79.60;;;;;;5092905;28;20040;-66
2022/06/19 03:08:33;;;;;;;10.32;5.13;;;23.20;79.70;;;;;;5092878;28;20105;-65
2022/06/19 03:11:04;;;;;;;10.18;5.70;;;23.20;79.70;;;;;;5093149;28;20051;-65
2022/06/19 03:13:30;;;;;;;;;;;23.10;80.10;;;;;;5093662;28;20149;-65
2022/06/19 03:16:07;;;;;;;9.20;5.38;;;23.20;79.80;;;;;;5093029;28;20013;-65
2022/06/19 03:18:36;;;;;;;8.52;5.78;;;23.40;79.60;;;;;;5092942;28;20106;-65
2022/06/19 03:21:03;;;;;;;19.33;7.05;;;23.40;79.80;;;;;;5093081;28;20040;-65
2022/06/19 03:23:30;;;;;;;11.35;5.50;;;23.50;79.20;;;;;;5093105;28;20051;-65
2022/06/19 03:25:57;;;;;;;9.75;5.47;;;23.60;78.50;;;;;;5092574;28;20048;-65
2022/06/19 03:28:25;;;;;;;16.55;5.38;;;23.40;80.10;;;;;;5092500;28;20086;-66
2022/06/19 03:30:56;;;;;;;9.05;5.45;;;23.00;81.40;;;;;;5075068;28;20048;-65
2022/06/19 03:33:27;;;;;;;7.40;4.85;;;22.90;81.40;;;;;;5092759;28;20422;-65
2022/06/19 03:35:55;;;;;;;8.10;4.95;;;22.80;81.40;;;;;;5092690;28;20131;-65
2022/06/19 03:38:22;;;;;;;11.48;5.53;;;23.00;80.50;;;;;;5092505;28;20040;-66
2022/06/19 03:40:50;;;;;;;10.43;5.72;;;23.20;79.60;;;;;;5092560;28;20103;-65
2022/06/19 03:43:17;;;;;;;8.32;5.50;;;23.40;79.30;;;;;;5074520;28;20105;-65
2022/06/19 03:45:45;;;;;;;10.10;5.43;;;23.40;79.50;;;;;;5092603;28;20087;-65
2022/06/19 03:48:13;;;;;;;8.77;5.47;;;23.50;79.40;;;;;;5092631;28;20407;-65
2022/06/19 03:50:42;;;;;;;10.13;5.70;;;23.20;80.00;;;;;;5096848;28;20077;-65
2022/06/19 03:53:10;;;;;;;13.48;6.13;;;22.90;80.60;;;;;;5096805;28;20036;-65
2022/06/19 03:55:37;;;;;;;8.95;6.15;;;22.50;81.80;;;;;;5077955;28;20044;-66
2022/06/19 03:58:04;;;;;;;7.90;5.45;;;22.30;82.50;;;;;;5078130;28;20574;-66
2022/06/19 04:00:31;;;;;;;13.65;6.18;;;22.40;81.90;;;;;;5096339;28;20048;-65
2022/06/19 04:02:58;;;;;;;10.30;5.43;;;22.50;81.90;;;;;;5095759;28;20168;-66
2022/06/19 04:05:25;;;;;;;9.98;5.28;;;22.60;81.60;;;;;;5078517;28;20063;-66
2022/06/19 04:07:57;;;;;;;13.60;5.75;;;22.70;81.30;;;;;;5078539;28;20038;-65
2022/06/19 04:10:25;;;;;;;15.05;6.90;;;22.80;81.20;;;;;;5096430;28;20717;-66
2022/06/19 04:12:56;;;;;;;12.32;5.50;;;22.90;81.00;;;;;;5095644;28;20032;-65
2022/06/19 04:15:26;;;;;;;11.73;6.05;;;23.00;80.50;;;;;;5096110;28;20072;-65
2022/06/19 04:17:53;;;;;;;7.37;5.50;;;23.00;81.60;;;;;;5096208;28;20040;-65
2022/06/19 04:20:20;;;;;;;10.02;6.20;;;22.90;82.50;;;;;;5095644;28;20074;-66
2022/06/19 04:22:50;;;;;;;9.52;5.03;;;22.80;82.80;;;;;;5077694;28;20059;-66
2022/06/19 04:25:17;;;;;;;10.13;5.75;;;22.80;82.10;;;;;;5078040;28;20051;-65
2022/06/19 04:27:45;;;;;;;9.00;4.97;;;22.90;81.30;;;;;;5095610;28;20491;-66
2022/06/19 04:30:14;;;;;;;10.57;6.18;;;22.90;81.70;;;;;;5096098;28;20051;-65
2022/06/19 04:32:42;;;;;;;9.82;5.63;;;22.80;82.20;;;;;;5078185;28;20131;-65
2022/06/19 04:35:09;;;;;;;8.82;5.47;;;22.70;82.50;;;;;;5095689;28;20040;-65
2022/06/19 04:37:36;;;;;;;15.65;5.55;;;22.70;82.70;;;;;;5094985;28;20491;-65
2022/06/19 04:40:04;;;;;;;9.15;5.18;;;22.70;82.80;;;;;;5095586;28;20131;-66
2022/06/19 04:42:30;;;;;;;6.53;5.07;;;22.80;82.60;;;;;;5095704;28;20058;-65
2022/06/19 04:44:58;;;;;;;9.63;5.80;;;22.90;81.80;;;;;;5095419;28;20056;-65
2022/06/19 04:47:26;;;;;;;13.60;5.68;;;23.00;81.70;;;;;;5095189;28;20040;-66
2022/06/19 04:49:54;;;;;;;7.38;5.60;;;23.00;81.90;;;;;;5077464;28;20434;-66
2022/06/19 04:52:21;;;;;;;9.35;5.78;;;23.10;81.60;;;;;;5077236;28;20071;-66
2022/06/19 04:54:48;;;;;;;14.15;5.55;;;23.10;82.60;;;;;;5094920;28;20048;-66
2022/06/19 04:57:16;;;;;;;13.80;5.63;;;22.90;83.20;;;;;;5077090;28;20032;-65
2022/06/19 04:59:43;;;;;;;8.65;5.57;;;22.90;83.30;;;;;;5110358;28;20048;-65
2022/06/19 05:02:15;;;;;;;9.50;5.47;;;23.00;82.80;;;;;;5094740;28;20046;-65
2022/06/19 05:04:42;;;;;;;9.63;5.82;;;23.10;82.90;;;;;;5095237;28;20146;-65
2022/06/19 05:07:09;;;;;;;8.85;5.38;;;23.20;83.00;;;;;;5095425;28;20090;-65
2022/06/19 05:09:37;;;;;;;7.10;5.05;;;23.30;83.10;;;;;;5094806;28;20070;-65
2022/06/19 05:12:05;;;;;;;9.75;5.28;;;23.40;83.20;;;;;;5074291;28;20620;-66
2022/06/19 05:14:32;;;;;;;11.50;5.60;;;23.40;83.90;;;;;;5074361;28;20064;-65
2022/06/19 05:17:01;;;;;;;8.93;5.78;;;23.60;83.30;;;;;;5094601;28;20104;-65
2022/06/19 05:19:30;;;;;;;13.77;5.65;;;23.70;82.90;;;;;;5094690;28;20066;-66
2022/06/19 05:22:01;;;;;;;6.75;5.35;;;23.70;84.70;;;;;;5076167;28;20515;-65
2022/06/19 05:24:34;;;;;;;11.90;5.55;;;23.60;83.90;;;;;;5094782;28;20048;-66
2022/06/19 05:27:04;;;;;;;10.75;5.20;;;23.70;83.30;;;;;;5094861;28;20119;-66
2022/06/19 05:29:33;;;;;;;10.98;5.22;;;23.90;83.40;;;;;;5094768;28;20044;-66
2022/06/19 05:32:00;;;;;;;12.02;5.63;;;23.90;82.50;;;;;;5076763;28;20423;-65
2022/06/19 05:34:27;;;;;;;6.65;5.43;;;24.10;81.60;;;;;;5076517;28;20061;-65
2022/06/19 05:36:54;;;;;;;8.25;5.15;;;24.30;83.20;;;;;;5093508;28;20118;-66
2022/06/19 05:39:21;;;;;;;9.38;4.90;;;24.40;81.00;;;;;;5094563;28;20043;-65
2022/06/19 05:41:52;;;;;;;14.43;4.97;;;24.70;80.40;;;;;;5094448;28;20086;-65
2022/06/19 05:44:21;;;;;;;7.45;4.30;;;24.90;78.10;;;;;;5094437;28;20040;-66
2022/06/19 05:46:49;;;;;;;5.25;4.00;;;24.90;78.70;;;;;;5076470;28;20114;-66
2022/06/19 05:49:17;;;;;;;8.70;4.38;;;25.00;76.50;;;;;;5094161;28;20089;-66
2022/06/19 05:51:43;;;;;;;10.38;4.32;;;25.10;76.00;;;;;;5094204;28;20054;-66
2022/06/19 05:54:12;;;;;;;8.43;4.20;;;25.60;76.70;;;;;;5094409;28;20598;-66
2022/06/19 05:56:40;;;;;;;8.98;4.82;;;25.90;74.10;;;;;;5093944;28;20071;-66
2022/06/19 05:59:08;;;;;;;5.38;3.83;;;25.90;72.20;;;;;;5094091;28;20459;-66
2022/06/19 06:01:35;;;;;;;7.38;3.85;;;25.80;74.50;;;;;;5094321;28;20096;-66
2022/06/19 06:04:02;;;;;;;6.45;4.03;;;26.10;74.30;;;;;;5059000;28;20070;-66
2022/06/19 06:06:32;;;;;;;5.35;3.60;;;26.10;73.90;;;;;;5094205;28;20561;-66
2022/06/19 06:08:59;;;;;;;6.78;3.53;;;26.10;72.10;;;;;;5076239;28;20407;-66
2022/06/19 06:11:26;;;;;;;10.88;3.67;;;26.00;72.00;;;;;;5093831;28;20044;-66
2022/06/19 06:13:53;;;;;;;9.15;4.07;;;26.10;72.40;;;;;;5094063;28;20051;-66
2022/06/19 06:16:22;;;;;;;6.05;3.97;;;26.40;73.10;;;;;;5093260;28;20489;-66
2022/06/19 06:18:51;;;;;;;6.90;3.20;;;26.50;72.80;;;;;;5078385;28;20543;-66
2022/06/19 06:21:23;;;;;;;17.15;4.03;;;26.90;71.20;;;;;;5093819;28;20111;-66
2022/06/19 06:23:50;;;;;;;6.95;4.00;;;26.90;72.80;;;;;;5058967;28;20048;-66
2022/06/19 06:26:21;;;;;;;7.05;4.43;;;27.10;72.20;;;;;;5093408;28;20050;-66
2022/06/19 06:28:52;;;;;;;8.68;3.80;;;27.40;71.80;;;;;;5093222;28;20051;-66
2022/06/19 06:31:21;;;;;;;8.40;4.30;;;27.30;71.90;;;;;;5093660;28;20040;-66
2022/06/19 06:33:49;;;;;;;6.13;3.28;;;27.70;73.20;;;;;;5074582;28;20068;-66
2022/06/19 06:36:17;;;;;;;9.73;4.10;;;27.70;69.80;;;;;;5075737;28;20052;-66
2022/06/19 06:38:45;;;;;;;5.75;3.85;;;27.80;71.60;;;;;;5101791;28;20040;-66
2022/06/19 06:41:14;;;;;;;4.82;3.60;;;27.60;71.20;;;;;;5074465;28;20043;-66
2022/06/19 06:43:44;;;;;;;4.35;3.53;;;27.60;70.60;;;;;;5092103;28;20044;-66
2022/06/19 06:46:23;;;;;;;11.30;4.75;;;27.20;71.40;;;;;;5113609;28;20053;-67
2022/06/19 06:48:52;;;;;;;6.63;3.50;;;27.20;73.50;;;;;;5113650;28;20043;-66
2022/06/19 06:51:23;;;;;;;6.45;3.60;;;27.30;73.70;;;;;;5113303;28;20100;-67
2022/06/19 06:53:52;;;;;;;6.75;3.95;;;27.00;73.00;;;;;;5101994;28;20447;-67
2022/06/19 06:56:20;;;;;;;8.07;3.65;;;27.20;72.20;;;;;;5111809;28;20048;-66
2022/06/19 06:58:48;;;;;;;5.55;3.65;;;27.30;72.50;;;;;;5096003;28;20082;-66
2022/06/19 07:01:19;;;;;;;14.00;4.32;;;27.60;72.20;;;;;;5102349;28;20499;-67
2022/06/19 07:03:57;;;;;;;8.65;4.32;;;28.10;70.70;;;;;;5090039;28;20039;-67
2022/06/19 07:06:26;;;;;;;7.57;3.80;;;28.50;73.00;;;;;;5089443;28;20055;-67
2022/06/19 07:09:04;;;;;;;9.17;3.43;;;28.90;72.90;;;;;;5089896;28;20043;-67
2022/06/19 07:11:46;;;;;;;8.70;3.47;;;29.00;67.90;;;;;;5088312;28;20308;-66
2022/06/19 07:14:16;;;;;;;9.32;3.85;;;29.00;68.50;;;;;;5089510;28;20182;-66
2022/06/19 07:16:44;;;;;;;7.87;3.33;;;29.00;66.10;;;;;;5090564;28;20040;-66
2022/06/19 07:19:11;;;;;;;4.95;3.10;;;29.20;66.00;;;;;;5091127;28;20792;-67
2022/06/19 07:21:44;;;;;;;6.57;3.08;;;29.60;67.40;;;;;;5073380;28;20035;-66
2022/06/19 07:24:10;;;;;;;7.63;3.05;;;29.30;63.30;;;;;;5077471;28;20056;-66
2022/06/19 07:26:37;;;;;;;7.38;3.15;;;29.20;62.30;;;;;;5092242;28;20039;-66
2022/06/19 07:29:08;;;;;;;7.93;2.92;;;29.20;63.90;;;;;;5087391;28;20036;-66
2022/06/19 07:31:36;;;;;;;6.50;3.10;;;29.00;62.60;;;;;;5083994;28;20046;-67
2022/06/19 07:34:05;;;;;;;5.22;2.95;;;29.40;64.50;;;;;;5107324;28;20040;-66
2022/06/19 07:36:36;;;;;;;6.15;2.92;;;29.40;64.60;;;;;;5080536;28;20043;-67
2022/06/19 07:39:04;;;;;;;5.45;2.83;;;29.30;62.20;;;;;;5076572;28;20514;-67
2022/06/19 07:41:32;;;;;;;5.95;2.45;;;29.20;62.60;;;;;;5094708;28;20109;-67
2022/06/19 07:44:07;;;;;;;4.68;2.80;;;29.50;63.40;;;;;;5096334;28;20058;-67
2022/06/19 07:50:09;;;;;;;6.13;3.17;;;29.50;64.40;;;;;;5101320;28;20047;-68
2022/06/19 07:52:11;;;;;;;6.40;3.05;;;29.70;63.40;;;;;;5094396;28;20162;-68
2022/06/19 07:54:37;;;;;;;5.40;2.92;;;30.00;63.00;;;;;;5094334;28;20051;-66
2022/06/19 07:57:05;;;;;;;4.57;2.65;;;30.00;61.80;;;;;;5093929;28;20040;-67
2022/06/19 07:59:32;;;;;;;6.97;2.95;;;30.10;62.60;;;;;;5095219;28;20114;-66
2022/06/19 08:02:04;;;;;;;7.97;2.70;;;30.00;62.60;;;;;;5099991;28;20039;-67
2022/06/19 08:04:32;;;;;;;7.60;2.85;;;30.30;62.50;;;;;;5094093;28;20059;-67
2022/06/19 08:07:01;;;;;;;7.53;2.42;;;30.40;61.60;;;;;;5061659;28;20043;-67
2022/06/19 08:09:35;;;;;;;10.07;2.63;;;30.40;61.60;;;;;;5073624;28;20044;-67
2022/06/19 08:12:14;;;;;;;9.43;2.75;;;30.30;61.00;;;;;;5066448;28;20051;-67
2022/06/19 08:14:42;;;;;;;5.28;2.45;;;30.40;60.20;;;;;;5071204;28;20047;-67
2022/06/19 08:17:10;;;;;;;10.65;2.90;;;30.30;59.80;;;;;;5079601;28;20031;-67
2022/06/19 08:19:46;;;;;;;7.05;2.90;;;30.50;60.50;;;;;;5095837;28;20039;-68
2022/06/19 08:22:13;;;;;;;4.70;2.60;;;30.50;60.70;;;;;;5096373;28;20043;-68
2022/06/19 08:24:42;;;;;;;5.25;2.20;;;30.80;60.10;;;;;;5095669;28;20088;-68
2022/06/19 08:27:09;;;;;;;6.65;2.15;;;30.80;59.10;;;;;;5086984;28;20122;-68
2022/06/19 08:29:38;;;;;;;8.73;2.15;;;31.00;60.10;;;;;;5092794;28;20130;-68
2022/06/19 08:32:07;;;;;;;6.77;2.30;;;31.20;58.60;;;;;;5104950;28;20032;-68
2022/06/19 08:34:34;;;;;;;4.03;2.40;;;30.90;57.90;;;;;;5115358;28;20035;-68
2022/06/19 08:37:05;;;;;;;7.05;2.72;;;30.60;57.30;;;;;;5096392;28;20040;-67
2022/06/19 08:39:32;;;;;;;8.15;2.85;;;30.40;56.80;;;;;;5076603;28;20055;-67
2022/06/19 08:42:21;;;;;;;7.53;2.50;;;30.40;57.00;;;;;;5082808;28;20043;-68
2022/06/19 08:45:16;;;;;;;18.15;3.67;;;30.30;57.90;;;;;;5089501;28;20518;-68
2022/06/19 08:48:07;;;;;;;7.28;2.53;;;30.50;58.60;;;;;;5076784;28;20035;-68
2022/06/19 08:50:59;;;;;;;13.77;3.47;;;30.40;58.70;;;;;;5105194;28;20044;-68
2022/06/19 08:53:36;;;;;;;9.70;2.88;;;30.40;59.30;;;;;;5086571;28;20044;-68
2022/06/19 08:56:06;;;;;;;6.50;2.63;;;30.20;58.50;;;;;;5093387;28;20052;-68
2022/06/19 08:59:11;;;;;;;10.77;3.28;;;30.60;60.30;;;;;;5092426;28;20032;-68
2022/06/19 09:01:50;;;;;;;11.27;2.75;;;30.30;59.00;;;;;;5096033;28;20035;-68
2022/06/19 09:07:56;;;;;;;8.00;2.80;;;30.50;58.90;;;;;;5095258;28;20039;-68
2022/06/19 09:10:42;;;;;;;4.90;2.78;;;30.50;58.10;;;;;;5076483;28;20062;-68
2022/06/19 09:13:34;;;;;;;13.85;2.70;;;30.70;58.30;;;;;;5095778;28;20058;-68
2022/06/19 09:16:02;;;;;;;5.95;2.70;;;30.70;59.00;;;;;;5094865;28;20498;-68
2022/06/19 09:18:55;;;;;;;10.60;2.53;;;30.70;58.90;;;;;;5094923;28;20562;-67
2022/06/19 09:21:49;;;;;;;8.52;3.00;;;30.90;57.90;;;;;;5077806;28;20050;-67
2022/06/19 09:24:37;;;;;;;9.40;3.30;;;30.70;57.40;;;;;;5094043;28;20052;-68
2022/06/19 09:27:05;;;;;;;12.55;2.83;;;30.80;57.90;;;;;;5094632;28;20043;-68
2022/06/19 09:29:57;;;;;;;9.60;3.03;;;31.20;58.80;;;;;;5076378;28;20549;-68
2022/06/19 09:32:46;;;;;;;48.83;3.72;;;31.20;58.30;;;;;;5082346;28;20035;-67
2022/06/19 09:35:46;;;;;;;16.63;2.67;;;30.90;57.90;;;;;;5114349;28;20116;-67
2022/06/19 09:38:34;;;;;;;6.10;3.10;;;30.90;58.90;;;;;;5048529;28;20411;-67
2022/06/19 09:41:08;;;;;;;17.13;3.25;;;31.00;58.40;;;;;;5092352;28;20039;-67
2022/06/19 09:44:01;;;;;;;9.95;2.92;;;30.80;57.90;;;;;;5097343;28;20039;-67
2022/06/19 09:46:45;;;;;;;8.13;2.53;;;30.90;57.30;;;;;;5114260;28;20472;-67
2022/06/19 09:49:27;;;;;;;11.55;2.85;;;30.80;57.70;;;;;;5114360;28;20040;-67
2022/06/19 09:52:06;;;;;;;8.73;2.90;;;30.90;57.80;;;;;;5113216;28;20031;-67
2022/06/19 09:54:46;;;;;;;7.55;2.50;;;31.00;57.50;;;;;;5075421;28;20055;-67
2022/06/19 09:57:27;;;;;;;6.40;2.33;;;;;;;;;;5100943;28;20032;-67
2022/06/19 10:00:04;;;;;;;11.27;2.47;;;31.40;57.00;;;;;;5113568;28;20506;-67
2022/06/19 10:02:48;;;;;;;7.30;2.53;;;31.50;56.20;;;;;;5081340;28;20410;-67
2022/06/19 10:05:36;;;;;;;8.88;2.67;;;31.20;56.30;;;;;;5101061;28;20127;-67
2022/06/19 10:08:23;;;;;;;6.05;2.60;;;31.50;57.30;;;;;;5094071;28;20380;-67
2022/06/19 10:11:14;;;;;;;6.95;2.72;;;31.70;56.30;;;;;;5090500;28;20054;-66
2022/06/19 10:13:58;;;;;;;6.03;2.38;;;32.10;56.20;;;;;;5069090;28;20047;-67
2022/06/19 10:16:45;;;;;;;5.95;3.45;;;32.00;56.00;;;;;;5073235;28;20044;-67
2022/06/19 10:19:22;;;;;;;;;;;31.90;56.10;;;;;;5093207;28;20032;-67
2022/06/19 10:22:23;;;;;;;2.15;1.90;;;31.90;55.90;;;;;;5092423;28;20435;-66
2022/06/19 10:25:23;;;;;;;5.65;2.20;;;32.00;56.20;;;;;;5090615;28;20044;-67
2022/06/19 10:28:23;;;;;;;10.48;2.95;;;32.30;55.60;;;;;;5091066;28;20691;-66
2022/06/19 10:31:36;;;;;;;12.02;2.70;;;32.10;55.30;;;;;;5091305;28;20096;-66
2022/06/19 10:34:38;;;;;;;8.23;2.40;;;32.50;56.10;;;;;;5065985;28;20602;-67
2022/06/19 10:37:25;;;;;;;9.65;2.80;;;32.70;55.90;;;;;;5054074;28;20040;-67
2022/06/19 10:40:19;;;;;;;9.43;2.83;;;32.50;56.20;;;;;;5071250;28;20032;-67
2022/06/19 10:43:22;;;;;;;5.57;2.28;;;32.60;55.30;;;;;;5073771;28;20120;-67
2022/06/19 10:45:58;;;;;;;3.92;2.22;;;32.70;56.20;;;;;;5096587;28;20046;-67
2022/06/19 10:48:45;;;;;;;5.50;1.85;;;32.50;55.30;;;;;;5099773;28;20089;-66
2022/06/19 10:51:50;;;;;;;10.32;2.85;;;32.50;55.80;;;;;;5113112;28;20100;-67
2022/06/19 10:54:42;;;;;;;10.02;2.13;;;32.40;55.80;;;;;;5111085;28;20043;-67
2022/06/19 10:57:41;;;;;;;10.10;2.80;;;32.70;57.20;;;;;;5112311;28;20164;-67
2022/06/19 11:00:09;;;;;;;7.50;2.55;;;32.70;55.20;;;;;;5113124;28;20510;-66
2022/06/19 11:05:53;;;;;;;8.68;2.40;;;32.50;56.10;;;;;;5111064;28;20680;-67
2022/06/19 11:08:27;;;;;;;13.88;3.25;;;32.70;56.40;;;;;;5110168;28;20075;-67
2022/06/19 11:10:59;;;;;;;13.27;2.95;;;32.60;55.50;;;;;;5110709;28;20530;-67
2022/06/19 11:14:04;;;;;;;10.10;2.90;;;32.60;55.50;;;;;;5110723;28;20038;-67
2022/06/19 11:16:34;;;;;;;13.40;3.33;;;33.00;55.50;;;;;;5110596;28;20039;-66
2022/06/19 11:19:03;;;;;;;13.95;2.33;;;32.80;56.50;;;;;;5091852;28;20530;-66
2022/06/19 11:21:35;;;;;;;15.13;2.65;;;32.90;56.60;;;;;;5110512;28;20055;-66
2022/06/19 11:24:05;;;;;;;6.68;2.97;;;32.90;55.60;;;;;;5125448;28;20134;-66
2022/06/19 11:26:48;;;;;;;13.65;2.70;;;32.80;56.30;;;;;;5110108;28;20043;-66
2022/06/19 11:29:15;;;;;;;14.10;3.33;;;32.80;56.60;;;;;;5093220;28;20039;-67
2022/06/19 11:32:13;;;;;;;6.50;2.50;;;33.10;56.60;;;;;;5110761;28;20067;-67
2022/06/19 11:35:03;;;;;;;10.27;2.53;;;33.00;56.20;;;;;;5092105;28;20092;-66
2022/06/19 11:37:32;;;;;;;9.50;2.67;;;;;;;;;;5093642;28;20046;-67
2022/06/19 11:39:58;;;;;;;4.97;2.63;;;33.40;56.00;;;;;;5110158;28;20048;-67
2022/06/19 11:42:45;;;;;;;6.20;2.85;;;33.50;56.60;;;;;;5110226;28;20039;-67
2022/06/19 11:45:14;;;;;;;9.50;3.45;;;33.30;56.00;;;;;;5109108;28;20506;-66
2022/06/19 11:47:54;;;;;;;8.57;2.60;;;33.40;56.30;;;;;;5110662;28;20413;-66
2022/06/19 11:50:40;;;;;;;6.70;2.90;;;33.60;56.30;;;;;;5111771;28;20651;-66
2022/06/19 11:53:09;;;;;;;9.10;2.65;;;33.70;54.80;;;;;;5110325;28;20047;-66
2022/06/19 11:55:48;;;;;;;9.15;3.05;;;34.20;56.10;;;;;;5095447;28;20073;-66
2022/06/19 11:58:38;;;;;;;8.60;3.17;;;33.70;55.40;;;;;;5051237;28;20506;-67
2022/06/19 12:01:16;;;;;;;;;;;33.80;55.70;;;;;;5100062;28;20453;-66
2022/06/19 12:03:55;;;;;;;8.75;2.72;;;33.20;55.20;;;;;;5069411;28;20002;-66
2022/06/19 12:06:57;;;;;;;9.10;2.80;;;33.60;55.00;;;;;;5089425;28;20055;-66
2022/06/19 12:09:38;;;;;;;8.57;3.00;;;33.80;53.00;;;;;;5088181;28;20063;-66
2022/06/19 12:12:13;;;;;;;8.27;3.05;;;34.20;56.60;;;;;;5095807;28;20177;-66
2022/06/19 12:15:12;;;;;;;7.22;2.90;;;34.40;53.80;;;;;;5114319;28;20054;-66
2022/06/19 12:17:44;;;;;;;21.55;2.80;;;34.20;55.80;;;;;;5114131;28;20043;-66
2022/06/19 12:20:12;;;;;;;9.63;2.72;;;34.60;54.10;;;;;;5099942;28;20806;-66
2022/06/19 12:23:03;;;;;;;11.32;2.65;;;34.60;53.20;;;;;;5092691;28;20040;-66
2022/06/19 12:25:32;;;;;;;13.15;3.05;;;34.50;53.40;;;;;;5072545;28;20073;-66
2022/06/19 12:28:23;;;;;;;9.45;2.85;;;34.60;53.50;;;;;;5092447;28;20089;-67
2022/06/19 12:30:53;;;;;;;;;;;34.30;53.10;;;;;;5091900;28;20036;-66
2022/06/19 12:33:32;;;;;;;10.95;2.65;;;34.50;53.60;;;;;;5094000;28;19908;-66
2022/06/19 12:36:00;;;;;;;10.68;3.03;;;34.50;54.80;;;;;;5093921;28;20067;-66
2022/06/19 12:38:31;;;;;;;7.07;2.60;;;34.30;55.00;;;;;;5093254;28;20028;-66
2022/06/19 12:41:18;;;;;;;7.05;2.88;;;34.00;54.90;;;;;;5095199;28;20055;-66
2022/06/19 12:44:00;;;;;;;13.52;2.92;;;34.00;54.70;;;;;;5075020;28;20115;-66
2022/06/19 12:47:06;;;;;;;9.27;2.97;;;33.70;54.60;;;;;;5075397;28;20131;-66
2022/06/19 12:50:03;;;;;;;8.07;2.80;;;33.50;55.30;;;;;;5047741;28;20048;-66
2022/06/19 12:53:04;;;;;;;9.30;2.63;;;33.60;55.90;;;;;;5093202;28;20032;-66
2022/06/19 12:55:35;;;;;;;13.02;3.88;;;33.70;55.70;;;;;;5092468;28;20036;-66
2022/06/19 12:58:07;;;;;;;8.00;2.90;;;33.70;56.00;;;;;;5093429;28;20118;-66
2022/06/19 13:00:56;;;;;;;11.50;3.00;;;33.80;55.70;;;;;;5075100;28;20071;-66
2022/06/19 13:03:53;;;;;;;7.10;3.35;;;33.60;55.20;;;;;;5094271;28;20457;-66
2022/06/19 13:06:41;;;;;;;12.18;3.42;;;33.60;55.20;;;;;;5091723;28;20456;-66
2022/06/19 13:09:49;;;;;;;10.57;4.10;;;33.60;53.70;;;;;;5090007;28;20119;-66
2022/06/19 13:13:02;;;;;;;6.55;2.85;;;33.90;54.60;;;;;;5091779;28;20040;-66
2022/06/19 13:15:34;;;;;;;8.65;3.13;;;33.80;55.90;;;;;;5088737;28;20093;-66
2022/06/19 13:18:34;;;;;;;9.50;3.13;;;33.60;56.30;;;;;;5094048;28;20086;-66
2022/06/19 13:21:12;;;;;;;4.82;2.60;;;33.90;55.20;;;;;;5092363;28;20471;-66
2022/06/19 13:23:53;;;;;;;7.25;3.22;;;34.30;56.60;;;;;;5074343;28;20101;-66
2022/06/19 13:29:43;;;;;;;11.70;3.70;;;33.60;56.50;;;;;;5091923;28;20039;-66
2022/06/19 13:32:26;;;;;;;13.23;3.00;;;33.80;56.70;;;;;;5093082;28;20040;-65
2022/06/19 13:35:25;;;;;;;13.32;3.63;;;34.10;55.10;;;;;;5092380;28;20036;-66
2022/06/19 13:38:04;;;;;;;9.18;3.10;;;34.10;55.00;;;;;;5037197;28;20036;-65
2022/06/19 13:40:46;;;;;;;5.07;2.60;;;34.20;54.90;;;;;;5092142;28;20051;-66